Time;durP1;ratioP1;P1;durP2;ratioP2;P2;SDS_P1;SDS_P2;PMS_P1;PMS_P2;Temp;Humidity;BMP_temperature;BMP_pressure;BME280_temperature;BME280_humidity;BME280_pressure;Samples;Min_cycle;Max_cycle;Signal;HPM_P1;HPM_P2
2023/06/26 00:00:20;;;;;;;10.15;9.15;;;;;;;;;;5086087;28;20191;-78
2023/06/26 00:02:46;;;;;;;9.68;8.88;;;;;;;;;;5114941;28;20227;-78
2023/06/26 00:05:13;;;;;;;9.38;8.57;;;;;;;;;;5079195;28;20323;-78
2023/06/26 00:07:39;;;;;;;9.93;9.02;;;;;;;;;;5112927;28;20257;-78
2023/06/26 00:10:05;;;;;;;9.30;8.48;;;;;;;;;;5099607;28;20201;-78
2023/06/26 00:12:32;;;;;;;9.55;8.70;;;;;;;;;;5082027;28;20182;-78
2023/06/26 00:14:58;;;;;;;9.85;9.05;;;;;;;;;;5098719;28;20178;-76
2023/06/26 00:17:24;;;;;;;9.40;8.60;;;;;;;;;;5098225;28;20182;-75
2023/06/26 00:19:50;;;;;;;10.32;9.43;;;;;;;;;;5115226;28;20189;-75
2023/06/26 00:22:17;;;;;;;10.00;9.10;;;;;;;;;;5116089;28;20194;-75
2023/06/26 00:24:44;;;;;;;10.57;9.68;;;;;;;;;;5081609;28;20189;-75
2023/06/26 00:27:10;;;;;;;9.95;9.05;;;;;;;;;;5081702;28;20179;-75
2023/06/26 00:29:38;;;;;;;10.02;9.15;;;;;;;;;;5095419;28;20193;-75
2023/06/26 00:32:04;;;;;;;9.35;8.60;;;;;;;;;;5098755;28;20182;-78
2023/06/26 00:34:30;;;;;;;10.40;9.45;;;;;;;;;;5083495;28;20178;-78
2023/06/26 00:36:56;;;;;;;10.15;9.25;;;;;;;;;;5081999;28;20190;-78
2023/06/26 00:39:25;;;;;;;10.40;9.50;;;;;;;;;;5082047;28;20178;-78
2023/06/26 00:41:53;;;;;;;10.57;9.68;;;;;;;;;;5097820;28;20177;-78
2023/06/26 00:44:19;;;;;;;10.30;9.40;;;;;;;;;;5078455;28;20187;-77
2023/06/26 00:46:46;;;;;;;10.10;9.20;;;;;;;;;;5078047;28;20178;-78
2023/06/26 00:49:12;;;;;;;10.70;9.70;;;;;;;;;;5098540;28;20261;-78
2023/06/26 00:51:38;;;;;;;10.45;9.45;;;;;;;;;;5098278;28;20206;-78
2023/06/26 00:54:05;;;;;;;10.38;9.50;;;;;;;;;;5115763;28;20224;-78
2023/06/26 00:56:32;;;;;;;10.82;9.80;;;;;;;;;;5115516;28;20182;-78
2023/06/26 00:58:58;;;;;;;10.50;9.60;;;;;;;;;;5098008;28;20178;-78
2023/06/26 01:01:25;;;;;;;10.90;9.77;;;;;;;;;;5088953;28;20206;-78
2023/06/26 01:03:52;;;;;;;10.27;9.25;;;;;;;;;;5105469;28;20269;-79
2023/06/26 01:06:18;;;;;;;9.95;9.05;;;;;;;;;;5098334;28;20182;-78
2023/06/26 01:08:45;;;;;;;10.13;9.27;;;;;;;;;;5115508;28;20251;-79
2023/06/26 01:11:11;;;;;;;9.88;8.98;;;;;;;;;;5081161;28;20201;-78
2023/06/26 01:13:37;;;;;;;10.02;9.10;;;;;;;;;;5080383;28;20186;-75
2023/06/26 01:16:04;;;;;;;10.88;9.77;;;;;;;;;;5114771;28;20166;-76
2023/06/26 01:18:31;;;;;;;10.18;9.27;;;;;;;;;;5097264;28;20178;-76
2023/06/26 01:21:00;;;;;;;10.05;9.25;;;;;;;;;;5116021;28;20182;-78
2023/06/26 01:23:39;;;;;;;10.70;9.70;;;;;;;;;;5098606;28;20185;-78
2023/06/26 01:26:08;;;;;;;11.13;9.93;;;;;;;;;;5098355;28;20174;-78
2023/06/26 01:28:35;;;;;;;11.07;10.02;;;;;;;;;;5099141;28;20173;-78
2023/06/26 01:31:01;;;;;;;11.30;10.23;;;;;;;;;;5098045;28;20417;-78
2023/06/26 01:33:27;;;;;;;11.00;9.90;;;;;;;;;;5084984;28;20179;-78
2023/06/26 01:35:53;;;;;;;10.25;9.45;;;;;;;;;;5095685;28;20167;-78
2023/06/26 01:38:21;;;;;;;11.05;10.00;;;;;;;;;;5071645;28;20191;-76
2023/06/26 01:40:47;;;;;;;10.57;9.57;;;;;;;;;;5094248;28;20269;-75
2023/06/26 01:43:25;;;;;;;11.02;9.95;;;;;;;;;;5115469;28;20186;-76
2023/06/26 01:45:52;;;;;;;10.77;9.80;;;;;;;;;;5115164;28;20182;-76
2023/06/26 01:48:19;;;;;;;11.18;9.90;;;;;;;;;;5114589;28;20178;-76
2023/06/26 01:50:46;;;;;;;10.38;9.48;;;;;;;;;;5096570;28;20205;-76
2023/06/26 01:53:13;;;;;;;11.32;10.23;;;;;;;;;;5075470;28;20235;-75
2023/06/26 01:55:54;;;;;;;11.13;10.13;;;;;;;;;;5068429;28;20218;-75
2023/06/26 01:58:24;;;;;;;11.32;10.35;;;;;;;;;;5070667;28;20178;-75
2023/06/26 02:00:50;;;;;;;12.13;11.02;;;;;;;;;;5076906;28;20179;-75
2023/06/26 02:03:16;;;;;;;13.00;11.60;;;;;;;;;;5077184;28;20195;-75
2023/06/26 02:05:42;;;;;;;12.90;11.65;;;;;;;;;;5061965;28;20278;-75
2023/06/26 02:08:14;;;;;;;12.75;11.15;;;;;;;;;;5073781;28;20171;-75
2023/06/26 02:10:40;;;;;;;12.63;11.52;;;;;;;;;;5076985;28;20296;-76
2023/06/26 02:13:06;;;;;;;12.10;10.93;;;;;;;;;;5065690;28;20207;-77
2023/06/26 02:15:32;;;;;;;11.95;10.75;;;;;;;;;;5048419;28;20237;-76
2023/06/26 02:17:58;;;;;;;12.00;10.90;;;;;;;;;;5084531;28;20179;-76
2023/06/26 02:20:24;;;;;;;12.30;11.10;;;;;;;;;;5055770;28;20323;-77
2023/06/26 02:22:50;;;;;;;12.27;10.15;;;;;;;;;;5060175;28;20233;-76
2023/06/26 02:25:16;;;;;;;14.48;10.32;;;;;;;;;;5072554;28;20228;-77
2023/06/26 02:27:42;;;;;;;10.73;9.20;;;;;;;;;;5088080;28;20297;-76
2023/06/26 02:30:09;;;;;;;9.68;8.55;;;;;;;;;;5055057;28;20219;-76
2023/06/26 02:32:36;;;;;;;8.98;8.15;;;;;;;;;;5084936;28;20195;-77
2023/06/26 02:35:02;;;;;;;9.60;7.97;;;;;;;;;;5073217;28;20241;-77
2023/06/26 02:37:28;;;;;;;6.93;6.22;;;;;;;;;;5086785;28;20179;-77
2023/06/26 02:39:54;;;;;;;7.43;6.65;;;;;;;;;;5064911;28;20244;-76
2023/06/26 02:42:20;;;;;;;7.53;6.05;;;;;;;;;;5072951;28;20186;-76
2023/06/26 02:44:46;;;;;;;7.50;6.68;;;;;;;;;;5061371;28;20252;-78
2023/06/26 02:47:12;;;;;;;10.18;7.00;;;;;;;;;;5094843;28;20177;-78
2023/06/26 02:49:38;;;;;;;8.82;6.68;;;;;;;;;;5059805;28;20237;-79
2023/06/26 02:52:04;;;;;;;10.90;7.10;;;;;;;;;;5076172;28;20182;-79
2023/06/26 02:54:30;;;;;;;7.65;5.85;;;;;;;;;;5066003;28;20218;-79
2023/06/26 02:56:56;;;;;;;10.65;6.05;;;;;;;;;;5109495;28;20185;-79
2023/06/26 02:59:22;;;;;;;9.68;5.97;;;;;;;;;;5073569;28;20182;-79
2023/06/26 03:01:48;;;;;;;7.47;5.60;;;;;;;;;;5101056;27;20188;-76
2023/06/26 03:04:15;;;;;;;9.27;5.50;;;;;;;;;;5093781;28;20174;-76
2023/06/26 03:06:41;;;;;;;9.02;5.70;;;;;;;;;;5087036;28;20182;-76
2023/06/26 03:09:07;;;;;;;12.30;5.95;;;;;;;;;;5096207;28;20189;-76
2023/06/26 03:11:33;;;;;;;9.93;5.80;;;;;;;;;;5067503;28;20207;-76
2023/06/26 03:13:59;;;;;;;8.07;5.07;;;;;;;;;;5091783;28;20178;-76
2023/06/26 03:16:25;;;;;;;8.98;5.50;;;;;;;;;;5103254;28;20181;-76
2023/06/26 03:18:51;;;;;;;10.20;5.90;;;;;;;;;;5076373;28;20239;-75
2023/06/26 03:21:17;;;;;;;7.57;5.40;;;;;;;;;;5092981;28;20215;-76
2023/06/26 03:23:43;;;;;;;9.98;5.75;;;;;;;;;;5097935;28;20319;-76
2023/06/26 03:26:09;;;;;;;7.85;5.45;;;;;;;;;;5115947;28;20189;-76
2023/06/26 03:28:36;;;;;;;10.88;5.65;;;;;;;;;;5116640;28;20174;-76
2023/06/26 03:31:02;;;;;;;10.18;5.78;;;;;;;;;;5132940;28;20211;-75
2023/06/26 03:33:28;;;;;;;9.68;5.35;;;;;;;;;;5093998;28;20253;-76
2023/06/26 03:35:54;;;;;;;8.48;5.43;;;;;;;;;;5112401;28;20174;-76
2023/06/26 03:38:20;;;;;;;12.40;5.45;;;;;;;;;;5114663;28;20173;-76
2023/06/26 03:40:46;;;;;;;7.82;5.40;;;;;;;;;;5093611;28;20242;-76
2023/06/26 03:43:12;;;;;;;10.40;5.70;;;;;;;;;;5076122;28;20290;-76
2023/06/26 03:45:38;;;;;;;9.52;5.35;;;;;;;;;;5088776;28;20230;-76
2023/06/26 03:48:04;;;;;;;9.15;5.13;;;;;;;;;;5096115;28;20197;-76
2023/06/26 03:50:30;;;;;;;14.38;6.00;;;;;;;;;;5079271;28;20292;-78
2023/06/26 03:52:56;;;;;;;10.25;5.45;;;;;;;;;;5096200;28;20249;-78
2023/06/26 03:55:23;;;;;;;12.05;5.93;;;;;;;;;;5095974;28;20174;-78
2023/06/26 03:57:49;;;;;;;9.38;5.75;;;;;;;;;;5096099;28;20261;-78
2023/06/26 04:00:15;;;;;;;10.85;6.53;;;;;;;;;;5095422;28;20206;-78
2023/06/26 04:02:41;;;;;;;12.10;6.53;;;;;;;;;;5089064;28;20190;-79
2023/06/26 04:05:07;;;;;;;9.95;5.95;;;;;;;;;;5092470;28;20190;-78
2023/06/26 04:07:34;;;;;;;10.00;5.70;;;;;;;;;;5093078;28;20189;-79
2023/06/26 04:10:00;;;;;;;13.27;5.93;;;;;;;;;;5092691;28;20203;-79
2023/06/26 04:12:26;;;;;;;9.95;5.70;;;;;;;;;;5076050;28;20216;-79
2023/06/26 04:14:52;;;;;;;13.52;5.93;;;;;;;;;;5079942;28;20230;-79
2023/06/26 04:17:18;;;;;;;13.77;6.03;;;;;;;;;;5089593;28;20209;-79
2023/06/26 04:19:44;;;;;;;10.27;5.65;;;;;;;;;;5099983;28;20178;-79
2023/06/26 04:22:10;;;;;;;11.70;6.03;;;;;;;;;;5084140;28;20175;-79
2023/06/26 04:24:36;;;;;;;10.93;6.05;;;;;;;;;;5079328;28;20240;-78
2023/06/26 04:27:03;;;;;;;10.20;5.93;;;;;;;;;;5095295;28;20231;-78
2023/06/26 04:29:29;;;;;;;13.70;6.67;;;;;;;;;;5095932;28;20178;-78
2023/06/26 04:31:57;;;;;;;15.27;6.28;;;;;;;;;;5078530;28;20206;-78
2023/06/26 04:34:25;;;;;;;15.20;7.13;;;;;;;;;;5117294;28;20254;-79
2023/06/26 04:36:51;;;;;;;13.73;6.18;;;;;;;;;;5101513;28;20358;-78
2023/06/26 04:39:17;;;;;;;17.17;6.57;;;;;;;;;;5078371;28;20178;-79
2023/06/26 04:41:43;;;;;;;16.50;6.20;;;;;;;;;;5096024;28;20300;-78
2023/06/26 04:44:09;;;;;;;16.25;7.07;;;;;;;;;;5063543;28;20190;-77
2023/06/26 04:46:35;;;;;;;13.17;6.83;;;;;;;;;;5090902;28;20201;-77
2023/06/26 04:49:03;;;;;;;14.73;6.38;;;;;;;;;;5097648;28;20261;-78
2023/06/26 04:51:29;;;;;;;13.93;6.35;;;;;;;;;;5081502;28;20222;-78
2023/06/26 04:53:55;;;;;;;19.05;7.00;;;;;;;;;;5115966;28;20210;-78
2023/06/26 04:56:21;;;;;;;14.20;6.60;;;;;;;;;;5093145;28;20193;-78
2023/06/26 04:58:47;;;;;;;19.23;7.15;;;;;;;;;;5098962;28;20186;-77
2023/06/26 05:01:13;;;;;;;16.52;6.25;;;;;;;;;;5085178;28;20216;-77
2023/06/26 05:03:39;;;;;;;19.47;6.60;;;;;;;;;;5088944;28;20204;-77
2023/06/26 05:06:05;;;;;;;15.90;6.80;;;;;;;;;;5116588;28;20202;-77
2023/06/26 05:08:31;;;;;;;16.03;6.80;;;;;;;;;;5082002;28;20189;-77
2023/06/26 05:10:58;;;;;;;17.45;6.72;;;;;;;;;;5098421;28;20214;-77
2023/06/26 05:13:25;;;;;;;15.25;6.82;;;;;;;;;;5098105;28;20221;-77
2023/06/26 05:15:51;;;;;;;17.85;7.28;;;;;;;;;;5097024;28;20185;-78
2023/06/26 05:18:17;;;;;;;13.23;6.50;;;;;;;;;;5098200;28;20193;-78
2023/06/26 05:20:43;;;;;;;12.70;7.38;;;;;;;;;;5098201;28;20217;-78
2023/06/26 05:23:11;;;;;;;15.03;6.50;;;;;;;;;;5098497;28;20178;-78
2023/06/26 05:25:37;;;;;;;13.70;6.40;;;;;;;;;;5094507;28;20217;-78
2023/06/26 05:28:09;;;;;;;13.77;6.07;;;;;;;;;;5096738;28;20182;-78
2023/06/26 05:30:36;;;;;;;17.33;6.80;;;;;;;;;;5099006;28;20209;-79
2023/06/26 05:33:02;;;;;;;18.03;7.40;;;;;;;;;;5097821;28;20178;-79
2023/06/26 05:35:31;;;;;;;18.17;6.47;;;;;;;;;;5097793;28;20205;-79
2023/06/26 05:37:58;;;;;;;13.98;6.65;;;;;;;;;;5097954;28;20174;-79
2023/06/26 05:40:24;;;;;;;14.00;6.40;;;;;;;;;;5097644;28;20182;-79
2023/06/26 05:42:50;;;;;;;17.08;6.65;;;;;;;;;;5097498;28;20282;-79
2023/06/26 05:45:17;;;;;;;16.23;6.87;;;;;;;;;;5097753;28;20174;-79
2023/06/26 05:47:43;;;;;;;13.70;6.45;;;;;;;;;;5097661;28;20183;-78
2023/06/26 05:50:09;;;;;;;13.93;6.22;;;;;;;;;;5107221;28;20201;-78
2023/06/26 05:52:35;;;;;;;15.63;6.65;;;;;;;;;;5097217;28;20219;-78
2023/06/26 05:55:02;;;;;;;10.85;6.07;;;;;;;;;;5097426;28;20181;-78
2023/06/26 05:57:29;;;;;;;12.13;5.77;;;;;;;;;;5097437;28;20219;-78
2023/06/26 05:59:55;;;;;;;13.40;5.75;;;;;;;;;;5097545;28;20170;-78
2023/06/26 06:02:21;;;;;;;12.73;6.03;;;;;;;;;;5080431;28;20217;-78
2023/06/26 06:04:47;;;;;;;13.95;5.55;;;;;;;;;;5097233;28;20174;-77
2023/06/26 06:07:13;;;;;;;11.88;5.68;;;;;;;;;;5109606;22;20153;-81
2023/06/26 06:09:40;;;;;;;11.38;5.55;;;;;;;;;;5080226;28;20196;-80
2023/06/26 06:12:06;;;;;;;12.57;5.18;;;;;;;;;;5096905;28;20227;-81
2023/06/26 06:14:33;;;;;;;8.45;5.00;;;;;;;;;;5080109;28;20305;-80
2023/06/26 06:16:59;;;;;;;8.88;5.00;;;;;;;;;;5096824;28;20186;-81
2023/06/26 06:19:25;;;;;;;12.10;5.23;;;;;;;;;;5096957;28;20177;-80
2023/06/26 06:21:51;;;;;;;11.20;5.20;;;;;;;;;;5096677;28;20193;-80
2023/06/26 06:24:17;;;;;;;8.52;4.43;;;;;;;;;;5096872;28;20182;-81
2023/06/26 06:26:43;;;;;;;11.10;4.70;;;;;;;;;;5096730;28;20197;-81
2023/06/26 06:29:10;;;;;;;9.07;4.53;;;;;;;;;;5096659;28;20185;-81
2023/06/26 06:31:36;;;;;;;11.05;4.97;;;;;;;;;;5096618;28;20232;-80
2023/06/26 06:34:02;;;;;;;5.60;4.00;;;;;;;;;;5079970;28;20193;-80
2023/06/26 06:36:28;;;;;;;9.48;4.85;;;;;;;;;;5079213;28;20407;-81
2023/06/26 06:38:54;;;;;;;8.20;4.15;;;;;;;;;;5079595;28;20246;-82
2023/06/26 06:41:20;;;;;;;9.13;4.05;;;;;;;;;;5079863;28;20174;-82
2023/06/26 06:43:46;;;;;;;8.27;3.90;;;;;;;;;;5108204;27;20184;-81
2023/06/26 06:46:12;;;;;;;7.13;3.95;;;;;;;;;;5110569;27;20299;-81
2023/06/26 06:48:38;;;;;;;7.70;3.60;;;;;;;;;;5082740;27;20203;-81
2023/06/26 06:51:04;;;;;;;7.28;3.40;;;;;;;;;;5134405;27;20220;-81
2023/06/26 06:53:31;;;;;;;6.47;3.42;;;;;;;;;;5108249;28;20162;-80
2023/06/26 06:55:57;;;;;;;8.65;3.25;;;;;;;;;;5070708;28;20179;-80
2023/06/26 06:58:23;;;;;;;6.90;3.30;;;;;;;;;;5059508;28;20185;-82
2023/06/26 07:00:51;;;;;;;5.43;3.47;;;;;;;;;;5059619;28;20217;-82
2023/06/26 07:03:17;;;;;;;4.78;3.33;;;;;;;;;;5076132;28;20166;-82
2023/06/26 07:05:44;;;;;;;4.90;3.45;;;;;;;;;;5059530;28;20196;-82
2023/06/26 07:08:10;;;;;;;7.70;3.53;;;;;;;;;;5058989;28;20292;-82
2023/06/26 07:10:36;;;;;;;7.68;3.45;;;;;;;;;;5059446;28;20214;-82
2023/06/26 07:13:02;;;;;;;5.28;3.20;;;;;;;;;;5076068;28;20189;-82
2023/06/26 07:15:28;;;;;;;7.32;3.70;;;;;;;;;;5059463;28;20179;-81
2023/06/26 07:17:55;;;;;;;6.82;3.70;;;;;;;;;;5075805;28;20179;-81
2023/06/26 07:20:21;;;;;;;4.60;3.40;;;;;;;;;;5075818;28;20185;-81
2023/06/26 07:22:47;;;;;;;6.43;3.30;;;;;;;;;;5058898;28;20285;-80
2023/06/26 07:25:13;;;;;;;5.00;3.15;;;;;;;;;;5093742;28;20171;-81
2023/06/26 07:27:39;;;;;;;7.95;3.35;;;;;;;;;;5075719;28;20265;-81
2023/06/26 07:30:05;;;;;;;7.65;3.50;;;;;;;;;;5075818;28;20210;-81
2023/06/26 07:32:31;;;;;;;4.40;3.42;;;;;;;;;;5075845;28;20171;-81
2023/06/26 07:34:57;;;;;;;6.07;3.60;;;;;;;;;;5059153;28;20175;-82
2023/06/26 07:37:23;;;;;;;8.10;3.55;;;;;;;;;;5058952;28;20178;-81
2023/06/26 07:39:49;;;;;;;6.53;3.35;;;;;;;;;;5075963;28;20174;-81
2023/06/26 07:42:15;;;;;;;5.50;3.08;;;;;;;;;;5058904;28;20171;-81
2023/06/26 07:44:45;;;;;;;8.15;3.40;;;;;;;;;;5059144;28;20182;-81
2023/06/26 07:47:11;;;;;;;6.53;4.10;;;;;;;;;;5058771;28;20171;-81
2023/06/26 07:49:38;;;;;;;8.10;3.60;;;;;;;;;;5075532;28;20179;-81
2023/06/26 07:52:05;;;;;;;6.65;3.60;;;;;;;;;;5077647;28;20198;-82
2023/06/26 07:54:31;;;;;;;8.32;3.60;;;;;;;;;;5079811;28;20208;-81
2023/06/26 07:56:58;;;;;;;5.75;3.40;;;;;;;;;;5079601;28;20257;-81
2023/06/26 07:59:24;;;;;;;5.55;3.65;;;;;;;;;;5079300;28;20239;-81
2023/06/26 08:01:51;;;;;;;4.55;3.10;;;;;;;;;;5079240;28;20174;-81
2023/06/26 08:04:19;;;;;;;6.82;3.53;;;;;;;;;;5062779;28;20178;-81
2023/06/26 08:06:45;;;;;;;8.75;3.47;;;;;;;;;;5079236;28;20171;-82
2023/06/26 08:09:12;;;;;;;4.82;3.28;;;;;;;;;;5078797;28;20230;-81
2023/06/26 08:11:39;;;;;;;5.47;3.17;;;;;;;;;;5078848;28;20287;-82
2023/06/26 08:14:05;;;;;;;4.80;3.22;;;;;;;;;;5062532;28;20193;-82
2023/06/26 08:16:31;;;;;;;5.60;3.42;;;;;;;;;;5062422;28;20179;-81
2023/06/26 08:18:57;;;;;;;7.20;3.53;;;;;;;;;;5062488;28;20187;-82
2023/06/26 08:21:23;;;;;;;7.72;3.22;;;;;;;;;;5062182;28;20187;-82
2023/06/26 08:23:49;;;;;;;5.63;3.55;;;;;;;;;;5096847;28;20177;-82
2023/06/26 08:26:15;;;;;;;9.05;3.35;;;;;;;;;;5062383;28;20277;-82
2023/06/26 08:28:41;;;;;;;6.90;3.20;;;;;;;;;;5079084;28;20189;-82
2023/06/26 08:31:07;;;;;;;4.97;3.47;;;;;;;;;;5062620;28;20225;-82
2023/06/26 08:33:33;;;;;;;7.93;3.38;;;;;;;;;;5062071;28;20179;-82
2023/06/26 08:35:59;;;;;;;4.97;3.10;;;;;;;;;;5062177;28;20266;-82
2023/06/26 08:38:25;;;;;;;5.53;3.15;;;;;;;;;;5078706;28;20263;-81
2023/06/26 08:40:51;;;;;;;8.52;3.45;;;;;;;;;;5078408;28;20198;-83
2023/06/26 08:43:17;;;;;;;6.45;3.30;;;;;;;;;;5061683;28;20185;-82
2023/06/26 08:45:43;;;;;;;3.78;3.30;;;;;;;;;;5078797;28;20238;-82
2023/06/26 08:48:10;;;;;;;5.85;3.58;;;;;;;;;;5061936;28;20239;-82
2023/06/26 08:50:36;;;;;;;4.90;3.30;;;;;;;;;;5078752;28;20206;-81
2023/06/26 08:53:04;;;;;;;5.53;3.45;;;;;;;;;;5078501;28;20181;-81
2023/06/26 08:55:32;;;;;;;4.93;3.50;;;;;;;;;;5078623;28;20178;-81
2023/06/26 08:57:58;;;;;;;6.45;3.50;;;;;;;;;;5078336;28;20167;-81
2023/06/26 09:00:24;;;;;;;5.65;3.65;;;;;;;;;;5061335;28;20190;-81
2023/06/26 09:02:50;;;;;;;6.68;3.38;;;;;;;;;;5060574;28;20269;-82
2023/06/26 09:05:16;;;;;;;6.32;3.95;;;;;;;;;;5061440;28;20174;-81
2023/06/26 09:07:42;;;;;;;6.53;3.95;;;;;;;;;;5060611;28;20219;-81
2023/06/26 09:10:08;;;;;;;5.95;3.20;;;;;;;;;;5061672;28;20267;-81
2023/06/26 09:12:35;;;;;;;4.88;2.90;;;;;;;;;;5061506;28;20170;-82
2023/06/26 09:15:03;;;;;;;3.78;2.80;;;;;;;;;;5077720;28;20175;-81
2023/06/26 09:17:30;;;;;;;5.05;2.78;;;;;;;;;;5061219;28;20179;-81
2023/06/26 09:19:56;;;;;;;6.07;2.63;;;;;;;;;;5061018;28;20282;-81
2023/06/26 09:22:22;;;;;;;7.68;2.42;;;;;;;;;;5077886;28;20214;-81
2023/06/26 09:24:48;;;;;;;4.05;2.60;;;;;;;;;;5077573;28;20167;-82
2023/06/26 09:27:15;;;;;;;5.00;2.38;;;;;;;;;;5077464;28;20201;-82
2023/06/26 09:29:41;;;;;;;3.50;2.10;;;;;;;;;;5077903;28;20196;-82
2023/06/26 09:32:09;;;;;;;4.95;2.47;;;;;;;;;;5077370;28;20210;-81
2023/06/26 09:34:35;;;;;;;4.30;2.13;;;;;;;;;;5077731;28;20175;-82
2023/06/26 09:37:04;;;;;;;7.50;1.95;;;;;;;;;;5077593;28;20178;-82
2023/06/26 09:39:33;;;;;;;3.47;1.88;;;;;;;;;;5061570;28;20178;-82
2023/06/26 09:41:59;;;;;;;5.72;1.85;;;;;;;;;;5077798;28;20178;-82
2023/06/26 09:44:25;;;;;;;4.68;2.00;;;;;;;;;;5060510;28;20186;-82
2023/06/26 09:46:53;;;;;;;5.03;1.70;;;;;;;;;;5060625;28;20174;-83
2023/06/26 09:49:19;;;;;;;3.92;1.73;;;;;;;;;;5077597;28;20179;-81
2023/06/26 09:51:45;;;;;;;3.83;1.50;;;;;;;;;;5060807;28;20281;-82
2023/06/26 09:54:11;;;;;;;4.32;1.70;;;;;;;;;;5076920;28;20202;-82
2023/06/26 09:56:37;;;;;;;5.40;1.55;;;;;;;;;;5077337;28;20182;-82
2023/06/26 09:59:04;;;;;;;4.75;1.80;;;;;;;;;;5076908;28;20175;-82
2023/06/26 10:01:30;;;;;;;4.15;1.90;;;;;;;;;;5060351;28;20183;-81
2023/06/26 10:03:57;;;;;;;6.35;1.70;;;;;;;;;;5060740;28;20189;-81
2023/06/26 10:06:28;;;;;;;27.05;2.50;;;;;;;;;;5076855;28;20181;-81
2023/06/26 10:08:54;;;;;;;3.65;1.73;;;;;;;;;;5076533;28;20230;-82
2023/06/26 10:11:22;;;;;;;4.35;1.90;;;;;;;;;;5059882;28;20214;-81
2023/06/26 10:13:49;;;;;;;5.05;1.85;;;;;;;;;;5076596;28;20175;-82
2023/06/26 10:16:19;;;;;;;4.57;1.70;;;;;;;;;;5076884;28;20171;-81
2023/06/26 10:18:46;;;;;;;5.10;2.00;;;;;;;;;;5094592;28;20163;-82
2023/06/26 10:21:13;;;;;;;4.22;1.70;;;;;;;;;;5076519;28;20186;-82
2023/06/26 10:23:39;;;;;;;6.57;2.00;;;;;;;;;;5094790;28;20170;-81
2023/06/26 10:26:07;;;;;;;7.00;1.98;;;;;;;;;;5059905;28;20183;-81
2023/06/26 10:28:34;;;;;;;7.13;1.88;;;;;;;;;;5076787;28;20262;-81
2023/06/26 10:31:01;;;;;;;5.57;1.70;;;;;;;;;;5076124;28;20247;-82
2023/06/26 10:33:28;;;;;;;11.50;2.00;;;;;;;;;;5076275;28;20170;-82
2023/06/26 10:35:54;;;;;;;5.13;1.70;;;;;;;;;;5059800;28;20209;-82
2023/06/26 10:38:20;;;;;;;5.32;1.60;;;;;;;;;;5076374;28;20186;-81
2023/06/26 10:40:51;;;;;;;5.95;1.98;;;;;;;;;;5076594;28;20166;-80
2023/06/26 10:43:18;;;;;;;3.47;1.60;;;;;;;;;;5076530;28;20174;-81
2023/06/26 10:45:45;;;;;;;3.72;1.50;;;;;;;;;;5059710;28;20182;-80
2023/06/26 10:48:13;;;;;;;4.68;1.70;;;;;;;;;;5059695;28;20183;-80
2023/06/26 10:50:39;;;;;;;3.80;1.52;;;;;;;;;;5076041;28;20203;-81
2023/06/26 10:53:05;;;;;;;4.68;1.55;;;;;;;;;;5059863;28;20175;-81
2023/06/26 10:55:31;;;;;;;3.72;1.90;;;;;;;;;;5076291;28;20185;-80
2023/06/26 10:57:57;;;;;;;4.97;1.70;;;;;;;;;;5076391;28;20167;-81
2023/06/26 11:00:23;;;;;;;3.47;1.50;;;;;;;;;;5059789;28;20212;-80
2023/06/26 11:02:50;;;;;;;2.03;1.40;;;;;;;;;;5076211;28;20222;-80
2023/06/26 11:05:27;;;;;;;3.17;1.60;;;;;;;;;;5075956;28;20175;-80
2023/06/26 11:08:06;;;;;;;3.15;1.40;;;;;;;;;;5075807;28;20237;-81
2023/06/26 11:10:48;;;;;;;3.58;1.50;;;;;;;;;;5075795;28;20209;-81
2023/06/26 11:13:19;;;;;;;2.38;1.52;;;;;;;;;;5075988;28;20204;-81
2023/06/26 11:15:45;;;;;;;3.58;1.60;;;;;;;;;;5059314;28;20269;-81
2023/06/26 11:18:11;;;;;;;5.90;1.80;;;;;;;;;;5059514;28;20217;-80
2023/06/26 11:20:37;;;;;;;3.45;1.70;;;;;;;;;;5075775;28;20174;-80
2023/06/26 11:23:07;;;;;;;2.10;1.48;;;;;;;;;;5075717;28;20252;-81
2023/06/26 11:25:35;;;;;;;2.67;1.60;;;;;;;;;;5075900;28;20273;-81
2023/06/26 11:28:01;;;;;;;4.63;1.65;;;;;;;;;;5079901;28;20278;-81
2023/06/26 11:30:27;;;;;;;2.63;1.50;;;;;;;;;;5063408;28;20217;-81
2023/06/26 11:32:54;;;;;;;3.88;1.63;;;;;;;;;;5063193;28;20190;-80
2023/06/26 11:35:29;;;;;;;2.45;1.45;;;;;;;;;;5063612;28;20185;-81
2023/06/26 11:37:56;;;;;;;3.55;1.52;;;;;;;;;;5063971;28;20180;-80
2023/06/26 11:40:26;;;;;;;1.83;1.38;;;;;;;;;;5063322;28;20183;-80
2023/06/26 11:42:53;;;;;;;6.20;1.60;;;;;;;;;;5063794;28;20186;-80
2023/06/26 11:45:20;;;;;;;2.63;1.30;;;;;;;;;;5062962;28;20178;-80
2023/06/26 11:47:46;;;;;;;2.30;1.58;;;;;;;;;;5079536;28;20213;-80
2023/06/26 11:50:17;;;;;;;3.15;1.33;;;;;;;;;;5062855;28;20214;-80
2023/06/26 11:52:43;;;;;;;1.38;1.27;;;;;;;;;;5079605;28;20181;-80
2023/06/26 11:55:12;;;;;;;2.42;1.30;;;;;;;;;;5062727;28;20186;-80
2023/06/26 11:57:38;;;;;;;2.08;1.40;;;;;;;;;;5079179;28;20175;-81
2023/06/26 12:00:11;;;;;;;2.35;1.63;;;;;;;;;;5079413;28;20214;-80
2023/06/26 12:02:38;;;;;;;6.22;1.50;;;;;;;;;;5079815;28;20166;-81
2023/06/26 12:05:04;;;;;;;2.38;1.50;;;;;;;;;;5097156;28;20179;-80
2023/06/26 12:07:31;;;;;;;4.07;1.67;;;;;;;;;;5063463;28;20182;-80
2023/06/26 12:09:58;;;;;;;5.65;1.73;;;;;;;;;;5063047;28;20174;-80
2023/06/26 12:12:24;;;;;;;5.43;1.67;;;;;;;;;;5079525;28;20166;-81
2023/06/26 12:14:51;;;;;;;2.85;1.67;;;;;;;;;;5079552;28;20167;-81
2023/06/26 12:17:18;;;;;;;2.47;1.45;;;;;;;;;;5098198;28;20194;-80
2023/06/26 12:19:49;;;;;;;3.33;1.70;;;;;;;;;;5107530;27;20169;-81
2023/06/26 12:22:16;;;;;;;3.05;1.80;;;;;;;;;;5103377;28;20190;-80
2023/06/26 12:24:43;;;;;;;5.00;1.70;;;;;;;;;;5099917;27;20207;-80
2023/06/26 12:27:10;;;;;;;5.15;1.60;;;;;;;;;;5088892;27;20228;-80
2023/06/26 12:29:36;;;;;;;8.40;1.83;;;;;;;;;;5093689;27;20188;-80
2023/06/26 12:32:03;;;;;;;3.58;1.63;;;;;;;;;;5104656;28;20190;-80
2023/06/26 12:34:33;;;;;;;3.40;1.73;;;;;;;;;;5134001;27;20169;-80
2023/06/26 12:37:03;;;;;;;5.15;1.60;;;;;;;;;;5096463;28;20182;-81
2023/06/26 12:39:29;;;;;;;4.72;1.50;;;;;;;;;;5098762;28;20231;-81
2023/06/26 12:42:01;;;;;;;4.38;1.52;;;;;;;;;;5082034;28;20178;-80
2023/06/26 12:44:30;;;;;;;3.58;1.58;;;;;;;;;;5098707;28;20180;-80
2023/06/26 12:47:07;;;;;;;3.95;1.52;;;;;;;;;;5079389;28;20182;-81
2023/06/26 12:49:36;;;;;;;2.38;1.50;;;;;;;;;;5082175;28;20178;-81
2023/06/26 12:52:03;;;;;;;4.45;1.55;;;;;;;;;;5098829;28;20198;-80
2023/06/26 12:54:30;;;;;;;4.15;1.42;;;;;;;;;;5117040;28;20173;-81
2023/06/26 12:56:56;;;;;;;2.60;1.50;;;;;;;;;;5098539;28;20210;-81
2023/06/26 12:59:22;;;;;;;2.35;1.50;;;;;;;;;;5081909;28;20178;-80
2023/06/26 13:01:48;;;;;;;4.53;1.45;;;;;;;;;;5081588;28;20192;-81
2023/06/26 13:04:14;;;;;;;4.35;1.67;;;;;;;;;;5098566;28;20204;-81
2023/06/26 13:06:40;;;;;;;3.33;1.55;;;;;;;;;;5098055;28;20186;-81
2023/06/26 13:09:06;;;;;;;5.35;2.00;;;;;;;;;;5078008;28;20233;-81
2023/06/26 13:11:33;;;;;;;3.63;1.52;;;;;;;;;;5073311;28;20207;-82
2023/06/26 13:13:59;;;;;;;3.45;1.75;;;;;;;;;;5079068;28;20179;-83
2023/06/26 13:16:25;;;;;;;3.40;1.70;;;;;;;;;;5088646;28;20261;-83
2023/06/26 13:18:51;;;;;;;6.03;1.80;;;;;;;;;;5078530;28;20178;-83
2023/06/26 13:21:18;;;;;;;2.97;1.30;;;;;;;;;;5087450;28;20170;-84
2023/06/26 13:23:44;;;;;;;2.53;1.40;;;;;;;;;;5078233;28;20182;-82
2023/06/26 13:26:10;;;;;;;2.95;1.50;;;;;;;;;;5086533;28;20179;-83
2023/06/26 13:28:37;;;;;;;3.08;1.50;;;;;;;;;;5078094;28;20179;-82
2023/06/26 13:31:03;;;;;;;3.38;1.60;;;;;;;;;;5094701;28;20266;-82
2023/06/26 13:33:29;;;;;;;4.75;1.50;;;;;;;;;;5089221;28;20312;-83
2023/06/26 13:35:55;;;;;;;2.85;1.48;;;;;;;;;;5094576;28;20214;-83
2023/06/26 13:38:24;;;;;;;3.05;1.30;;;;;;;;;;5088274;28;20197;-83
2023/06/26 13:40:51;;;;;;;3.90;1.20;;;;;;;;;;5095293;28;20175;-83
2023/06/26 13:43:17;;;;;;;2.00;1.20;;;;;;;;;;5070875;28;20220;-83
2023/06/26 13:45:43;;;;;;;5.43;1.40;;;;;;;;;;5077693;28;20174;-83
2023/06/26 13:48:09;;;;;;;4.20;1.48;;;;;;;;;;5077564;28;20183;-83
2023/06/26 13:50:35;;;;;;;2.28;1.17;;;;;;;;;;5072246;28;20217;-82
2023/06/26 13:53:01;;;;;;;3.97;1.20;;;;;;;;;;5077284;28;20174;-84
2023/06/26 13:55:27;;;;;;;2.78;1.35;;;;;;;;;;5071375;28;20178;-84
2023/06/26 13:57:54;;;;;;;3.42;1.25;;;;;;;;;;5077130;28;20182;-83
2023/06/26 14:00:21;;;;;;;3.15;1.60;;;;;;;;;;5094874;28;20179;-83
2023/06/26 14:02:47;;;;;;;2.17;1.15;;;;;;;;;;5091085;28;20175;-83
2023/06/26 14:05:14;;;;;;;4.65;1.50;;;;;;;;;;5069327;28;20209;-83
2023/06/26 14:07:40;;;;;;;2.60;1.20;;;;;;;;;;5096800;28;20234;-84
2023/06/26 14:10:06;;;;;;;4.90;1.30;;;;;;;;;;5080533;28;20182;-83
2023/06/26 14:12:32;;;;;;;3.38;1.48;;;;;;;;;;5115554;28;20241;-84
2023/06/26 14:14:59;;;;;;;5.68;1.20;;;;;;;;;;5097419;28;20247;-84
2023/06/26 14:17:25;;;;;;;3.17;1.50;;;;;;;;;;5080398;28;20178;-84
2023/06/26 14:19:51;;;;;;;3.10;1.35;;;;;;;;;;5097154;28;20184;-83
2023/06/26 14:22:18;;;;;;;4.63;1.20;;;;;;;;;;5080267;28;20221;-83
2023/06/26 14:24:44;;;;;;;2.72;1.30;;;;;;;;;;5080366;28;20242;-84
2023/06/26 14:27:10;;;;;;;1.65;1.27;;;;;;;;;;5096990;28;20200;-83
2023/06/26 14:29:37;;;;;;;3.78;1.35;;;;;;;;;;5080193;28;20177;-83
2023/06/26 14:32:03;;;;;;;2.67;1.30;;;;;;;;;;5096705;28;20237;-83
2023/06/26 14:34:29;;;;;;;3.53;1.42;;;;;;;;;;5079941;28;20174;-83